Tomsk, Russia
Current Conditions -  °F | °C
As of 5:30 AM on Sunday 26 Oct 2014 (Local Time) from UNTT Reporting Station
Overcast Overcast  
Wind Chill:   Ceiling: 6600
Heat Index: 18°   Visibility: 6mi
Dew Point: 10°   Wind: 9mph
Humidity: 73%   Direction: 210°SSW
Pressure: 29.94"   Gusts: NA
Location:  56.5°N, 84.97°E
Report Text: UNTT 252230Z 21004MPS 9999 FEW023CB OVC066 M08/M12 Q1014 NOSIGRMK QFE746 21420150
Loading
Personal Weather Stations






























Interactive Weather Map
Tropical Storm Tracking
New forecast layout! Learn more

10-Day Weather Forecast

Advertisements
Track Severe Weather on mobile